Time;durP1;ratioP1;P1;durP2;ratioP2;P2;SDS_P1;SDS_P2;PMS_P1;PMS_P2;Temp;Humidity;BMP_temperature;BMP_pressure;BME280_temperature;BME280_humidity;BME280_pressure;Samples;Min_cycle;Max_cycle;Signal;HPM_P1;HPM_P2
2022/03/31 00:01:29;;;;;;;;;;;5.10;99.00;;;;;;4957313;28;20405;-76
2022/03/31 00:03:56;;;;;;;;;;;5.10;99.10;;;;;;4974825;28;20293;-76
2022/03/31 00:06:21;;;;;;;;;;;5.10;99.30;;;;;;4957730;28;20250;-75
2022/03/31 00:08:47;;;;;;;;;;;5.10;99.10;;;;;;4973358;28;20278;-75
2022/03/31 00:11:13;;;;;;;;;;;5.10;99.30;;;;;;4957110;28;20417;-75
2022/03/31 00:13:41;;;;;;;;;;;5.10;99.70;;;;;;4989561;28;20344;-76
2022/03/31 00:16:08;;;;;;;;;;;5.10;99.90;;;;;;4989522;28;19941;-74
2022/03/31 00:18:35;;;;;;;;;;;5.10;99.60;;;;;;4936695;29;19922;-75
2022/03/31 00:21:01;;;;;;;;;;;5.10;99.20;;;;;;4936757;29;20083;-75
2022/03/31 00:23:29;;;;;;;;;;;5.20;99.00;;;;;;4936734;29;19926;-75
2022/03/31 00:26:04;;;;;;;;;;;5.10;99.30;;;;;;4967743;28;19922;-74
2022/03/31 00:28:30;;;;;;;;;;;5.10;99.50;;;;;;4936365;29;19941;-75
2022/03/31 00:30:55;;;;;;;;;;;5.10;99.40;;;;;;4936595;29;20116;-75
2022/03/31 00:33:21;;;;;;;;;;;5.10;99.50;;;;;;4953209;29;20055;-74
2022/03/31 00:35:47;;;;;;;;;;;5.10;99.90;;;;;;4941176;29;19933;-75
2022/03/31 00:38:12;;;;;;;;;;;5.10;99.90;;;;;;4954921;29;20417;-75
2022/03/31 00:40:39;;;;;;;;;;;5.10;99.90;;;;;;4968967;28;19923;-75
2022/03/31 00:43:08;;;;;;;;;;;5.10;99.70;;;;;;4937021;29;19926;-75
2022/03/31 00:45:46;;;;;;;;;;;5.10;99.80;;;;;;4936299;29;19922;-75
2022/03/31 00:48:13;;;;;;;;;;;5.10;99.90;;;;;;4968384;28;20405;-75
2022/03/31 00:50:39;;;;;;;;;;;5.10;99.90;;;;;;4972869;28;19929;-75
2022/03/31 00:53:05;;;;;;;;;;;5.10;99.90;;;;;;4972754;28;19922;-76
2022/03/31 00:55:31;;;;;;;;;;;5.10;99.90;;;;;;4956133;28;20348;-76
2022/03/31 00:57:58;;;;;;;;;;;5.20;99.90;;;;;;4956691;28;19922;-75
2022/03/31 01:00:25;;;;;;;;;;;5.10;99.90;;;;;;4940156;28;19945;-75
2022/03/31 01:02:51;;;;;;;;;;;5.10;99.90;;;;;;4973697;28;20400;-76
2022/03/31 01:05:16;;;;;;;;;;;5.20;99.90;;;;;;4956335;28;19929;-74
2022/03/31 01:07:42;;;;;;;;;;;5.20;99.90;;;;;;4972305;28;20370;-76
2022/03/31 01:10:09;;;;;;;;;;;5.20;99.90;;;;;;4956597;28;19922;-76
2022/03/31 01:12:35;;;;;;;;;;;5.20;99.90;;;;;;4924508;28;20381;-76
2022/03/31 01:15:06;;;;;;;;;;;5.20;99.90;;;;;;4940065;28;20373;-77
2022/03/31 01:17:42;;;;;;;;;;;5.10;99.90;;;;;;4955970;28;19933;-75
2022/03/31 01:20:10;;;;;;;;;;;5.10;99.90;;;;;;4940583;28;19929;-75
2022/03/31 01:22:35;;;;;;;;;;;5.10;99.90;;;;;;4940744;28;19922;-75
2022/03/31 01:25:02;;;;;;;;;;;5.10;99.90;;;;;;4973551;28;19972;-76
2022/03/31 01:27:28;;;;;;;;;;;5.00;99.90;;;;;;4956287;28;20373;-76
2022/03/31 01:29:54;;;;;;;;;;;5.00;99.90;;;;;;4956183;28;19977;-75
2022/03/31 01:32:20;;;;;;;;;;;5.00;99.90;;;;;;4955824;28;20415;-75
2022/03/31 01:34:47;;;;;;;;;;;5.00;99.90;;;;;;4955946;28;19953;-75
2022/03/31 01:37:13;;;;;;;;;;;4.90;99.90;;;;;;4955712;28;19965;-75
2022/03/31 01:39:40;;;;;;;;;;;4.90;99.90;;;;;;4956238;28;19968;-75
2022/03/31 01:42:06;;;;;;;;;;;4.90;99.90;;;;;;4940058;28;19965;-75
2022/03/31 01:44:32;;;;;;;;;;;4.80;99.90;;;;;;4973464;28;20397;-75
2022/03/31 01:46:58;;;;;;;;;;;4.80;99.90;;;;;;4956215;28;19929;-75
2022/03/31 01:49:23;;;;;;;;;;;4.80;99.90;;;;;;4955576;28;19922;-75
2022/03/31 01:51:49;;;;;;;;;;;4.80;99.90;;;;;;4955702;28;19964;-74
2022/03/31 01:54:15;;;;;;;;;;;4.80;99.90;;;;;;4956103;28;19922;-75
2022/03/31 01:56:42;;;;;;;;;;;4.80;99.90;;;;;;4940124;28;19926;-76
2022/03/31 01:59:11;;;;;;;;;;;4.80;99.90;;;;;;4972291;28;20286;-75
2022/03/31 02:01:37;;;;;;;;;;;4.80;99.90;;;;;;4955635;28;19933;-75
2022/03/31 02:04:03;;;;;;;;;;;4.80;99.90;;;;;;4969501;28;19923;-75
2022/03/31 02:06:29;;;;;;;;;;;4.70;99.90;;;;;;4955985;29;19922;-75
2022/03/31 02:08:56;;;;;;;;;;;4.70;99.90;;;;;;4939323;29;20388;-75
2022/03/31 02:11:21;;;;;;;;;;;4.70;99.90;;;;;;4936593;29;19932;-75
2022/03/31 02:13:47;;;;;;;;;;;4.70;99.90;;;;;;4952617;29;19926;-75
2022/03/31 02:16:13;;;;;;;;;;;4.60;99.90;;;;;;4967911;28;20293;-75
2022/03/31 02:18:39;;;;;;;;;;;4.60;99.90;;;;;;4936868;29;19922;-75
2022/03/31 02:21:05;;;;;;;;;;;4.60;99.90;;;;;;4968741;28;20429;-75
2022/03/31 02:23:31;;;;;;;;;;;4.50;99.90;;;;;;4968760;28;19965;-75
2022/03/31 02:25:56;;;;;;;;;;;4.60;99.90;;;;;;4952369;29;19978;-76
2022/03/31 02:28:22;;;;;;;;;;;4.50;99.90;;;;;;4952018;29;19926;-75
2022/03/31 02:30:48;;;;;;;;;;;4.50;99.90;;;;;;4952224;29;20286;-76
2022/03/31 02:33:13;;;;;;;;;;;4.50;99.90;;;;;;4984514;28;19926;-76
2022/03/31 02:35:39;;;;;;;;;;;4.50;99.90;;;;;;4954622;28;20005;-76
2022/03/31 02:38:05;;;;;;;;;;;4.40;99.90;;;;;;4940010;29;19922;-76
2022/03/31 02:40:31;;;;;;;;;;;4.40;99.90;;;;;;4956239;29;19922;-75
2022/03/31 02:42:56;;;;;;;;;;;4.40;99.90;;;;;;4956007;29;19981;-76
2022/03/31 02:45:26;;;;;;;;;;;4.30;99.90;;;;;;4971985;28;19965;-75
2022/03/31 02:47:55;;;;;;;;;;;4.30;99.90;;;;;;4956078;29;19923;-75
2022/03/31 02:50:21;;;;;;;;;;;4.30;99.90;;;;;;4958933;29;20562;-76
2022/03/31 02:55:31;;;;;;;;;;;4.20;99.90;;;;;;4971516;28;20491;-76
2022/03/31 02:58:02;;;;;;;;;;;4.20;99.90;;;;;;4924704;29;19926;-76
2022/03/31 03:00:33;;;;;;;;;;;4.20;99.90;;;;;;4940093;29;19922;-75
2022/03/31 03:03:03;;;;;;;;;;;4.20;99.90;;;;;;4939541;29;19922;-76
2022/03/31 03:05:31;;;;;;;;;;;4.20;99.90;;;;;;4955152;28;19929;-76
2022/03/31 03:08:02;;;;;;;;;;;4.20;99.90;;;;;;4956777;28;20251;-75
2022/03/31 03:10:32;;;;;;;;;;;4.20;99.90;;;;;;4923752;29;20289;-77
2022/03/31 03:12:57;;;;;;;;;;;4.20;99.90;;;;;;4939074;29;20309;-75
2022/03/31 03:15:33;;;;;;;;;;;4.20;99.90;;;;;;4938284;29;19923;-76
2022/03/31 03:18:19;;;;;;;;;;;4.10;99.90;;;;;;4928623;29;20279;-76
2022/03/31 03:20:45;;;;;;;;;;;4.10;99.90;;;;;;4955486;29;19922;-76
2022/03/31 03:23:11;;;;;;;;;;;4.00;99.90;;;;;;4939274;29;19927;-76
2022/03/31 03:25:36;;;;;;;;;;;4.00;99.90;;;;;;4939520;29;19933;-75
2022/03/31 03:28:02;;;;;;;;;;;4.00;99.90;;;;;;4939372;29;20017;-76
2022/03/31 03:30:29;;;;;;;;;;;4.00;99.90;;;;;;4955380;29;20000;-76
2022/03/31 03:32:55;;;;;;;;;;;4.00;99.90;;;;;;4955321;29;20045;-75
2022/03/31 03:35:25;;;;;;;;;;;3.90;99.90;;;;;;4956518;28;19977;-74
2022/03/31 03:37:51;;;;;;;;;;;4.00;99.90;;;;;;4955159;29;19932;-75
2022/03/31 03:40:19;;;;;;;;;;;4.00;99.90;;;;;;4956297;29;19930;-75
2022/03/31 03:42:45;;;;;;;;;;;3.90;99.90;;;;;;4957890;29;19922;-76
2022/03/31 03:45:11;;;;;;;;;;;3.90;99.90;;;;;;4954662;29;19923;-75
2022/03/31 03:47:37;;;;;;;;;;;3.90;99.90;;;;;;4937533;29;19933;-75
2022/03/31 03:50:03;;;;;;;;;;;3.90;99.90;;;;;;4954815;29;19922;-75
2022/03/31 03:52:30;;;;;;;;;;;3.90;99.90;;;;;;4956078;28;20005;-75
2022/03/31 03:54:56;;;;;;;;;;;3.90;99.90;;;;;;4954592;29;19926;-75
2022/03/31 03:57:23;;;;;;;;;;;3.90;99.90;;;;;;4954237;29;19932;-75
2022/03/31 03:59:49;;;;;;;;;;;3.90;99.90;;;;;;4954641;29;19928;-74
2022/03/31 04:02:16;;;;;;;;;;;3.80;99.90;;;;;;4954299;29;20396;-74
2022/03/31 04:04:41;;;;;;;;;;;3.80;99.90;;;;;;4957343;28;20351;-74
2022/03/31 04:07:08;;;;;;;;;;;3.80;99.90;;;;;;4957285;28;19926;-74
2022/03/31 04:09:34;;;;;;;;;;;3.80;99.90;;;;;;4957466;28;19922;-75
2022/03/31 04:12:09;;;;;;;;;;;3.80;99.90;;;;;;4974909;28;19930;-73
2022/03/31 04:14:35;;;;;;;;;;;3.70;99.90;;;;;;4957317;28;19952;-74
2022/03/31 04:17:02;;;;;;;;;;;3.70;99.90;;;;;;4957162;28;19922;-74
2022/03/31 04:19:30;;;;;;;;;;;3.80;99.90;;;;;;4974627;28;19926;-74
2022/03/31 04:21:56;;;;;;;;;;;3.70;99.90;;;;;;4974728;28;19926;-74
2022/03/31 04:24:22;;;;;;;;;;;3.70;99.90;;;;;;4942444;28;19925;-74
2022/03/31 04:26:47;;;;;;;;;;;3.70;99.90;;;;;;4957058;28;19922;-74
2022/03/31 04:29:13;;;;;;;;;;;3.70;99.90;;;;;;4956632;28;20012;-74
2022/03/31 04:31:43;;;;;;;;;;;3.60;99.90;;;;;;4956858;28;19922;-73
2022/03/31 04:34:11;;;;;;;;;;;3.70;99.90;;;;;;4974467;28;19930;-73
2022/03/31 04:36:37;;;;;;;;;;;3.60;99.90;;;;;;4989061;28;20000;-73
2022/03/31 04:39:05;;;;;;;;;;;3.60;99.90;;;;;;4974113;28;19922;-73
2022/03/31 04:41:32;;;;;;;;;;;3.60;99.90;;;;;;4956764;28;19933;-73
2022/03/31 04:43:58;;;;;;;;;;;3.60;99.90;;;;;;4972896;28;19922;-74
2022/03/31 04:46:26;;;;;;;;;;;3.60;99.90;;;;;;4974406;28;19922;-74
2022/03/31 04:48:51;;;;;;;;;;;3.60;99.90;;;;;;4957018;28;19933;-75
2022/03/31 04:51:17;;;;;;;;;;;3.50;99.90;;;;;;4988923;28;20015;-75
2022/03/31 04:53:47;;;;;;;;;;;3.50;99.90;;;;;;4974017;28;19973;-75
2022/03/31 04:56:16;;;;;;;;;;;3.50;99.90;;;;;;4940290;28;19922;-72
2022/03/31 04:58:41;;;;;;;;;;;3.50;99.90;;;;;;4940189;28;20283;-73
2022/03/31 05:01:07;;;;;;;;;;;3.60;99.90;;;;;;4956374;28;19925;-74
2022/03/31 05:03:33;;;;;;;;;;;3.60;99.90;;;;;;4972121;28;19928;-75
2022/03/31 05:05:59;;;;;;;;;;;3.60;99.90;;;;;;4971734;28;20017;-75
2022/03/31 05:08:24;;;;;;;;;;;3.60;99.90;;;;;;4940799;28;19922;-74
2022/03/31 05:10:50;;;;;;;;;;;3.60;99.90;;;;;;4941467;28;20370;-74
2022/03/31 05:13:17;;;;;;;;;;;3.60;99.90;;;;;;4957559;28;20393;-76
2022/03/31 05:15:42;;;;;;;;;;;3.60;99.90;;;;;;4972791;28;20381;-74
2022/03/31 05:18:11;;;;;;;;;;;3.60;99.90;;;;;;4972260;28;20381;-74
2022/03/31 05:20:37;;;;;;;;;;;3.60;99.90;;;;;;4955928;28;19933;-75
2022/03/31 05:23:06;;;;;;;;;;;3.60;99.90;;;;;;4972245;28;20369;-75
2022/03/31 05:25:32;;;;;;;;;;;3.60;99.90;;;;;;4940371;28;20013;-74
2022/03/31 05:28:00;;;;;;;;;;;3.60;99.90;;;;;;4956428;28;20033;-75
2022/03/31 05:30:25;;;;;;;;;;;3.70;99.90;;;;;;4956362;28;19976;-75
2022/03/31 05:32:53;;;;;;;;;;;3.60;99.90;;;;;;4955091;28;19933;-75
2022/03/31 05:35:19;;;;;;;;;;;3.70;99.90;;;;;;4972370;28;19926;-75
2022/03/31 05:37:48;;;;;;;;;;;3.70;99.90;;;;;;4955416;28;19922;-75
2022/03/31 05:40:15;;;;;;;;;;;3.70;99.90;;;;;;4940161;28;20041;-75
2022/03/31 05:42:44;;;;;;;;;;;3.70;99.90;;;;;;4955799;28;19922;-75
2022/03/31 05:45:12;;;;;;;;;;;3.70;99.90;;;;;;4955269;28;19926;-74
2022/03/31 05:47:39;;;;;;;;;;;3.80;99.90;;;;;;4955838;28;19929;-74
2022/03/31 05:50:07;;;;;;;;;;;3.70;99.90;;;;;;4956058;28;19922;-73
2022/03/31 05:52:38;;;;;;;;;;;3.70;99.90;;;;;;4955777;28;19922;-74
2022/03/31 05:55:07;;;;;;;;;;;3.80;99.90;;;;;;4940053;28;19949;-74
2022/03/31 05:57:34;;;;;;;;;;;3.70;99.90;;;;;;4955656;28;19929;-74
2022/03/31 06:00:00;;;;;;;;;;;3.80;99.90;;;;;;4955963;28;19934;-74
2022/03/31 06:02:25;;;;;;;;;;;3.80;99.90;;;;;;4956372;28;20025;-73
2022/03/31 06:04:56;;;;;;;;;;;3.80;99.90;;;;;;4957724;28;19973;-74
2022/03/31 06:07:26;;;;;;;;;;;3.80;99.90;;;;;;4972108;28;19922;-73
2022/03/31 06:09:52;;;;;;;;;;;3.80;99.90;;;;;;4940796;28;19981;-75
2022/03/31 06:12:20;;;;;;;;;;;3.90;99.90;;;;;;4976037;28;20396;-74
2022/03/31 06:14:46;;;;;;;;;;;3.90;99.90;;;;;;4959365;28;19926;-74
2022/03/31 06:17:12;;;;;;;;;;;3.90;99.90;;;;;;4959060;28;19925;-73
2022/03/31 06:19:38;;;;;;;;;;;3.90;99.90;;;;;;4959634;28;20340;-75
2022/03/31 06:22:04;;;;;;;;;;;3.90;99.90;;;;;;4959092;28;19926;-73
2022/03/31 06:24:32;;;;;;;;;;;3.80;99.90;;;;;;4976884;28;20021;-74
2022/03/31 06:27:00;;;;;;;;;;;3.80;99.90;;;;;;4976597;28;20013;-73
2022/03/31 06:29:26;;;;;;;;;;;3.90;99.90;;;;;;4976425;28;19929;-73
2022/03/31 06:31:53;;;;;;;;;;;3.80;99.90;;;;;;4991404;28;19956;-74
2022/03/31 06:34:20;;;;;;;;;;;3.80;99.90;;;;;;4959202;28;20262;-73
2022/03/31 06:36:45;;;;;;;;;;;3.80;99.90;;;;;;4991243;28;19977;-74
2022/03/31 06:39:13;;;;;;;;;;;3.90;99.90;;;;;;4991633;28;19979;-74
2022/03/31 06:41:39;;;;;;;;;;;3.90;99.90;;;;;;4942962;28;19922;-74
2022/03/31 06:44:08;;;;;;;;;;;3.90;99.90;;;;;;4958908;28;19961;-74
2022/03/31 06:46:37;;;;;;;;;;;3.90;99.90;;;;;;4975358;28;20297;-72
2022/03/31 06:49:04;;;;;;;;;;;3.90;99.90;;;;;;4958870;28;19922;-74
2022/03/31 06:51:30;;;;;;;;;;;3.90;99.90;;;;;;4959073;28;19926;-74
2022/03/31 06:53:57;;;;;;;;;;;4.00;99.90;;;;;;4958709;28;20410;-75
2022/03/31 06:56:24;;;;;;;;;;;4.00;99.90;;;;;;4942136;28;20439;-76
2022/03/31 06:58:50;;;;;;;;;;;4.00;99.90;;;;;;4960510;28;19969;-75
2022/03/31 07:01:15;;;;;;;;;;;4.00;99.90;;;;;;4967072;28;20366;-74
2022/03/31 07:03:41;;;;;;;;;;;4.00;99.90;;;;;;4958742;28;20005;-74
2022/03/31 07:06:07;;;;;;;;;;;4.00;99.90;;;;;;4939389;29;20489;-74
2022/03/31 07:08:38;;;;;;;;;;;4.10;99.90;;;;;;4939143;29;20009;-74
2022/03/31 07:11:06;;;;;;;;;;;4.10;99.90;;;;;;4923595;29;19922;-74
2022/03/31 07:13:47;;;;;;;;;;;4.10;99.90;;;;;;4941197;29;19927;-74
2022/03/31 07:16:17;;;;;;;;;;;4.00;99.90;;;;;;4939118;29;20543;-74
2022/03/31 07:18:43;;;;;;;;;;;3.90;99.90;;;;;;4923299;29;20409;-73
2022/03/31 07:21:09;;;;;;;;;;;3.80;99.90;;;;;;4922823;29;19922;-73
2022/03/31 07:23:40;;;;;;;;;;;3.90;99.90;;;;;;4923542;29;19926;-73
2022/03/31 07:26:06;;;;;;;;;;;3.80;99.90;;;;;;4938961;29;19929;-73
2022/03/31 07:28:32;;;;;;;;;;;3.80;99.90;;;;;;4939190;29;19929;-73
2022/03/31 07:30:57;;;;;;;;;;;3.80;99.90;;;;;;4939116;29;19923;-74
2022/03/31 07:33:24;;;;;;;;;;;3.70;99.90;;;;;;4915827;29;19923;-74
2022/03/31 07:35:49;;;;;;;;;;;3.70;99.90;;;;;;4883924;29;19994;-73
2022/03/31 07:38:16;;;;;;;;;;;3.70;99.90;;;;;;4899612;29;19923;-74
2022/03/31 07:40:42;;;;;;;;;;;3.70;99.90;;;;;;4899570;29;20382;-74
2022/03/31 07:43:08;;;;;;;;;;;3.80;99.90;;;;;;4915274;29;19966;-74
2022/03/31 07:45:35;;;;;;;;;;;3.70;99.90;;;;;;4884033;29;20354;-72
2022/03/31 07:48:08;;;;;;;;;;;3.70;99.90;;;;;;4899567;29;19934;-72
2022/03/31 07:50:34;;;;;;;;;;;3.70;99.90;;;;;;4915283;29;19923;-73
2022/03/31 07:53:01;;;;;;;;;;;3.60;99.90;;;;;;4915312;29;19927;-73
2022/03/31 07:55:27;;;;;;;;;;;3.60;99.90;;;;;;4868362;29;19931;-74
2022/03/31 07:57:57;;;;;;;;;;;3.60;99.90;;;;;;4886518;29;20399;-74
2022/03/31 08:00:23;;;;;;;;;;;3.60;99.90;;;;;;4918753;29;19931;-73
2022/03/31 08:02:50;;;;;;;;;;;3.60;99.90;;;;;;4934103;29;19970;-74
2022/03/31 08:05:17;;;;;;;;;;;3.60;99.90;;;;;;4951901;28;20283;-75
2022/03/31 08:07:43;;;;;;;;;;;3.70;99.90;;;;;;4974629;28;20381;-74
2022/03/31 08:10:09;;;;;;;;;;;3.70;99.90;;;;;;4941510;28;20008;-74
2022/03/31 08:12:35;;;;;;;;;;;3.70;99.90;;;;;;4956984;28;19977;-75
2022/03/31 08:15:03;;;;;;;;;;;3.80;99.90;;;;;;4941266;28;19926;-74
2022/03/31 08:17:30;;;;;;;;;;;3.80;99.90;;;;;;4941621;28;20330;-75
2022/03/31 08:20:00;;;;;;;;;;;3.80;99.90;;;;;;4973575;28;20012;-74
2022/03/31 08:22:31;;;;;;;;;;;3.80;99.90;;;;;;4957328;28;19965;-75
2022/03/31 08:24:57;;;;;;;;;;;3.80;99.90;;;;;;4941180;28;20388;-74
2022/03/31 08:27:24;;;;;;;;;;;3.80;99.90;;;;;;4956929;28;19922;-75
2022/03/31 08:29:50;;;;;;;;;;;3.80;99.90;;;;;;4925446;28;19926;-74
2022/03/31 08:32:16;;;;;;;;;;;3.70;99.90;;;;;;4956735;28;20341;-74
2022/03/31 08:34:43;;;;;;;;;;;3.70;99.90;;;;;;4956642;28;20061;-74
2022/03/31 08:37:09;;;;;;;;;;;3.70;99.90;;;;;;4956167;28;20013;-75
2022/03/31 08:39:35;;;;;;;;;;;3.70;99.90;;;;;;4957198;28;19922;-74
2022/03/31 08:42:01;;;;;;;;;;;3.70;99.90;;;;;;4974346;28;19926;-75
2022/03/31 08:44:27;;;;;;;;;;;3.60;99.90;;;;;;4941017;28;19926;-75
2022/03/31 08:46:53;;;;;;;;;;;3.60;99.90;;;;;;4956260;28;19922;-75
2022/03/31 08:49:25;;;;;;;;;;;3.70;99.90;;;;;;4976095;28;19922;-74
2022/03/31 08:51:51;;;;;;;;;;;3.70;99.90;;;;;;4958108;28;19922;-75
2022/03/31 08:54:16;;;;;;;;;;;3.70;99.90;;;;;;4956826;28;19932;-74
2022/03/31 08:56:42;;;;;;;;;;;3.80;99.90;;;;;;4940534;28;20017;-74
2022/03/31 08:59:11;;;;;;;;;;;3.70;99.90;;;;;;4973909;28;19926;-75
2022/03/31 09:01:40;;;;;;;;;;;3.70;99.90;;;;;;4940550;28;19932;-75
2022/03/31 09:04:06;;;;;;;;;;;3.80;99.90;;;;;;4973727;28;20437;-75
2022/03/31 09:06:32;;;;;;;;;;;3.70;99.90;;;;;;4956503;28;19928;-75
2022/03/31 09:08:59;;;;;;;;;;;3.70;99.90;;;;;;4987862;28;20032;-76
2022/03/31 09:11:25;;;;;;;;;;;3.70;99.90;;;;;;4956443;28;19922;-75
2022/03/31 09:13:54;;;;;;;;;;;3.70;99.90;;;;;;4955498;28;20024;-75
2022/03/31 09:16:28;;;;;;;;;;;3.70;99.90;;;;;;4941070;28;19922;-75
2022/03/31 09:18:59;;;;;;;;;;;3.60;99.90;;;;;;4972140;28;19926;-75
2022/03/31 09:21:24;;;;;;;;;;;3.60;99.90;;;;;;4955835;28;19929;-76
2022/03/31 09:23:50;;;;;;;;;;;3.60;99.90;;;;;;4956130;28;19926;-75
2022/03/31 09:26:16;;;;;;;;;;;3.50;99.90;;;;;;4973352;28;19929;-76
2022/03/31 09:28:45;;;;;;;;;;;3.50;99.90;;;;;;4955955;28;19933;-76
2022/03/31 09:31:12;;;;;;;;;;;3.50;99.90;;;;;;4988599;28;20341;-75
2022/03/31 09:33:44;;;;;;;;;;;3.50;99.90;;;;;;4956510;28;19921;-75
2022/03/31 09:36:13;;;;;;;;;;;3.50;99.90;;;;;;4956071;28;19961;-75
2022/03/31 09:39:02;;;;;;;;;;;3.50;99.90;;;;;;4957671;28;19926;-75
2022/03/31 09:41:33;;;;;;;;;;;3.40;99.90;;;;;;4958154;28;20294;-76
2022/03/31 09:44:04;;;;;;;;;;;3.40;99.90;;;;;;4987623;28;19922;-76
2022/03/31 09:46:30;;;;;;;;;;;3.30;99.90;;;;;;4940009;28;19925;-75
2022/03/31 09:48:56;;;;;;;;;;;3.40;99.90;;;;;;4988594;28;19976;-76
2022/03/31 09:51:24;;;;;;;;;;;3.30;99.90;;;;;;4956460;28;19921;-75
2022/03/31 09:53:51;;;;;;;;;;;3.30;99.90;;;;;;4956107;28;19918;-75
2022/03/31 09:56:18;;;;;;;;;;;3.20;99.90;;;;;;4955701;28;19933;-77
2022/03/31 09:58:48;;;;;;;;;;;3.20;99.90;;;;;;4988611;28;20285;-75
2022/03/31 10:01:15;;;;;;;;;;;3.20;99.90;;;;;;4981235;28;20305;-76
2022/03/31 10:03:40;;;;;;;;;;;3.20;99.90;;;;;;4954344;28;19926;-77
2022/03/31 10:06:07;;;;;;;;;;;3.20;99.90;;;;;;4955173;28;19933;-76
2022/03/31 10:08:44;;;;;;;;;;;3.20;99.90;;;;;;4955840;28;19926;-75
2022/03/31 10:11:11;;;;;;;;;;;3.10;99.90;;;;;;4972229;28;19922;-75
2022/03/31 10:13:48;;;;;;;;;;;3.10;99.90;;;;;;4972411;28;19988;-75
2022/03/31 10:16:21;;;;;;;;;;;3.00;99.90;;;;;;4936507;28;19928;-75
2022/03/31 10:18:47;;;;;;;;;;;3.00;99.90;;;;;;4971856;28;20040;-76
2022/03/31 10:21:30;;;;;;;;;;;3.00;99.90;;;;;;4932686;29;20401;-75
2022/03/31 10:27:01;;;;;;;;;;;2.90;99.90;;;;;;4918944;29;19923;-76
2022/03/31 10:29:48;;;;;;;;;;;2.90;99.90;;;;;;4937469;29;20345;-74
2022/03/31 10:32:18;;;;;;;;;;;3.00;99.90;;;;;;4937297;29;19922;-76
2022/03/31 10:34:48;;;;;;;;;;;2.90;99.90;;;;;;4916184;29;19922;-76
2022/03/31 10:37:19;;;;;;;;;;;2.90;99.90;;;;;;4916316;29;19923;-76
2022/03/31 10:39:52;;;;;;;;;;;3.00;99.90;;;;;;4931910;29;19923;-76
2022/03/31 10:42:20;;;;;;;;;;;3.00;99.90;;;;;;4916346;29;19922;-76
2022/03/31 10:44:45;;;;;;;;;;;3.00;99.90;;;;;;4931792;29;19934;-76
2022/03/31 10:47:14;;;;;;;;;;;2.90;99.90;;;;;;4916566;29;20425;-75
2022/03/31 10:49:50;;;;;;;;;;;2.90;99.90;;;;;;4915978;29;19923;-74
2022/03/31 10:52:19;;;;;;;;;;;3.00;99.90;;;;;;4932846;28;20377;-75
2022/03/31 10:54:49;;;;;;;;;;;2.90;99.90;;;;;;4973425;28;20013;-76
2022/03/31 10:57:17;;;;;;;;;;;2.90;99.90;;;;;;4958112;28;19922;-75
2022/03/31 10:59:45;;;;;;;;;;;2.90;99.90;;;;;;4975031;28;20377;-75
2022/03/31 11:02:16;;;;;;;;;;;2.80;99.90;;;;;;4958974;28;19929;-74
2022/03/31 11:04:47;;;;;;;;;;;2.80;99.90;;;;;;4958380;28;19921;-76
2022/03/31 11:07:15;;;;;;;;;;;2.80;99.90;;;;;;4974591;28;20399;-75
2022/03/31 11:09:43;;;;;;;;;;;2.80;99.90;;;;;;4958695;28;19933;-77
2022/03/31 11:12:26;;;;;;;;;;;2.80;99.90;;;;;;4959599;28;20377;-76
2022/03/31 11:14:54;;;;;;;;;;;2.70;99.90;;;;;;4942809;28;19926;-75
2022/03/31 11:17:22;;;;;;;;;;;2.70;99.90;;;;;;4958620;28;19930;-74
2022/03/31 11:19:48;;;;;;;;;;;2.60;99.90;;;;;;4942744;28;19929;-75
2022/03/31 11:22:23;;;;;;;;;;;2.60;99.90;;;;;;4975927;28;20353;-75
2022/03/31 11:24:53;;;;;;;;;;;2.60;99.90;;;;;;4943165;28;19921;-75
2022/03/31 11:27:36;;;;;;;;;;;2.50;99.90;;;;;;4977498;28;20008;-76
2022/03/31 11:30:08;;;;;;;;;;;2.50;99.90;;;;;;4977885;28;20322;-76
2022/03/31 11:32:35;;;;;;;;;;;2.50;99.90;;;;;;4931655;28;19922;-75
2022/03/31 11:35:09;;;;;;;;;;;2.50;99.90;;;;;;4946911;28;19922;-75
2022/03/31 11:37:36;;;;;;;;;;;2.40;99.90;;;;;;4958086;28;20016;-75
2022/03/31 11:40:06;;;;;;;;;;;2.40;99.90;;;;;;4975625;28;19969;-76
2022/03/31 11:42:44;;;;;;;;;;;2.40;99.90;;;;;;4959156;28;20448;-76
2022/03/31 11:45:24;;;;;;;;;;;2.40;99.90;;;;;;4957525;28;19925;-75
2022/03/31 11:47:55;;;;;;;;;;;2.40;99.90;;;;;;4958111;28;19928;-77
2022/03/31 11:50:31;;;;;;;;;;;2.40;99.90;;;;;;4975427;28;19969;-76
2022/03/31 11:52:57;;;;;;;;;;;2.40;99.90;;;;;;4957365;28;19929;-76
2022/03/31 11:55:27;;;;;;;;;;;2.40;99.90;;;;;;4973626;28;20392;-75
2022/03/31 11:57:54;;;;;;;;;;;2.40;99.90;;;;;;4957595;28;19929;-75
2022/03/31 12:00:31;;;;;;;;;;;2.30;99.90;;;;;;4975239;28;20776;-76
2022/03/31 12:02:58;;;;;;;;;;;2.30;99.90;;;;;;4989937;28;19985;-76
2022/03/31 12:05:26;;;;;;;;;;;2.40;99.90;;;;;;4957349;28;20361;-75
2022/03/31 12:07:53;;;;;;;;;;;2.40;99.90;;;;;;4972780;28;19921;-76
2022/03/31 12:10:24;;;;;;;;;;;2.30;99.90;;;;;;4957194;28;19922;-76
2022/03/31 12:12:55;;;;;;;;;;;2.30;99.90;;;;;;4973240;28;20020;-77
2022/03/31 12:15:43;;;;;;;;;;;2.30;99.90;;;;;;4956405;28;19973;-75
2022/03/31 12:18:11;;;;;;;;;;;2.20;99.90;;;;;;4957328;28;20364;-76
2022/03/31 12:20:37;;;;;;;;;;;2.30;99.90;;;;;;4974095;28;20407;-75
2022/03/31 12:23:15;;;;;;;;;;;2.20;99.90;;;;;;4975700;28;19922;-74
2022/03/31 12:25:41;;;;;;;;;;;2.20;99.90;;;;;;4990138;28;19926;-75
2022/03/31 12:28:08;;;;;;;;;;;2.20;99.90;;;;;;4989940;28;19932;-75
2022/03/31 12:30:53;;;;;;;;;;;2.20;99.90;;;;;;4989378;28;20378;-75
2022/03/31 12:33:25;;;;;;;;;;;2.20;99.90;;;;;;4941634;28;19922;-77
2022/03/31 12:35:52;;;;;;;;;;;2.10;99.90;;;;;;4974389;28;19930;-78
2022/03/31 12:38:18;;;;;;;;;;;2.10;99.90;;;;;;4941488;28;19922;-75
2022/03/31 12:40:44;;;;;;;;;;;2.10;99.90;;;;;;4989657;28;19984;-75
2022/03/31 12:43:11;;;;;;;;;;;2.10;99.90;;;;;;4940821;28;20390;-75
2022/03/31 12:45:38;;;;;;;;;;;2.10;99.90;;;;;;4972701;28;19925;-76
2022/03/31 12:48:08;;;;;;;;;;;2.00;99.90;;;;;;4974004;28;19922;-77
2022/03/31 12:50:34;;;;;;;;;;;2.00;99.90;;;;;;4974080;28;19922;-76
2022/03/31 12:53:00;;;;;;;;;;;2.00;99.90;;;;;;4973421;28;19929;-76
2022/03/31 12:55:28;;;;;;;;;;;1.90;99.90;;;;;;4957203;28;19926;-76
2022/03/31 12:57:59;;;;;;;;;;;1.90;99.90;;;;;;4971088;28;19929;-77
2022/03/31 13:00:34;;;;;;;;;;;1.90;99.90;;;;;;4971325;28;19979;-75
2022/03/31 13:03:03;;;;;;;;;;;1.90;99.90;;;;;;4957195;28;19965;-76
2022/03/31 13:05:30;;;;;;;;;;;1.90;99.90;;;;;;4956705;28;20335;-76
2022/03/31 13:07:58;;;;;;;;;;;1.90;99.90;;;;;;4957821;28;19922;-77
2022/03/31 13:10:25;;;;;;;;;;;1.90;99.90;;;;;;4941788;28;19929;-76
2022/03/31 13:12:53;;;;;;;;;;;1.90;99.90;;;;;;4958377;28;19985;-76
2022/03/31 13:15:21;;;;;;;;;;;1.90;99.90;;;;;;4946523;28;19926;-78
2022/03/31 13:17:47;;;;;;;;;;;1.90;99.90;;;;;;4928249;28;19925;-77
2022/03/31 13:20:13;;;;;;;;;;;1.90;99.90;;;;;;4972844;28;19949;-77
2022/03/31 13:22:54;;;;;;;;;;;1.80;99.90;;;;;;4974553;28;19948;-79
2022/03/31 13:25:21;;;;;;;;;;;1.80;99.90;;;;;;4973054;28;19928;-78
2022/03/31 13:27:50;;;;;;;;;;;1.80;99.90;;;;;;4941368;28;19984;-78
2022/03/31 13:30:16;;;;;;;;;;;1.70;99.90;;;;;;4956672;28;19926;-78
2022/03/31 13:32:43;;;;;;;;;;;1.70;99.90;;;;;;4940983;28;19926;-79
2022/03/31 13:35:28;;;;;;;;;;;1.70;99.90;;;;;;4972695;28;19973;-78
2022/03/31 13:37:56;;;;;;;;;;;1.70;99.90;;;;;;4956436;28;19922;-78
2022/03/31 13:40:22;;;;;;;;;;;1.70;99.90;;;;;;4956721;28;19926;-79
2022/03/31 13:42:48;;;;;;;;;;;1.60;99.90;;;;;;4956747;28;19987;-77
2022/03/31 13:45:14;;;;;;;;;;;1.60;99.90;;;;;;4973085;28;19929;-80
2022/03/31 13:47:44;;;;;;;;;;;1.60;99.90;;;;;;4918089;29;20025;-80
2022/03/31 13:50:14;;;;;;;;;;;1.60;99.90;;;;;;4918068;29;19922;-79
2022/03/31 13:52:39;;;;;;;;;;;1.50;99.90;;;;;;4917519;29;19930;-81
2022/03/31 13:55:06;;;;;;;;;;;1.50;99.90;;;;;;4918192;29;19927;-80
2022/03/31 14:03:01;;;;;;;;;;;1.40;99.90;;;;;;4939794;29;20330;-78
2022/03/31 14:05:26;;;;;;;;;;;1.50;99.90;;;;;;4921731;29;20448;-79
2022/03/31 14:07:55;;;;;;;;;;;1.40;99.90;;;;;;4934746;29;20013;-80
2022/03/31 14:10:21;;;;;;;;;;;1.40;99.90;;;;;;4918103;29;19930;-79
2022/03/31 14:12:47;;;;;;;;;;;1.30;99.90;;;;;;4949877;29;20425;-79
2022/03/31 14:15:13;;;;;;;;;;;1.40;99.90;;;;;;4917345;29;19922;-77
2022/03/31 14:17:38;;;;;;;;;;;1.30;99.90;;;;;;4935672;29;19922;-79
2022/03/31 14:20:05;;;;;;;;;;;1.40;99.90;;;;;;4937126;29;20293;-80
2022/03/31 14:22:33;;;;;;;;;;;1.30;99.90;;;;;;4937543;29;20289;-80
2022/03/31 14:25:09;;;;;;;;;;;1.30;99.90;;;;;;4924972;29;19922;-75
2022/03/31 14:27:35;;;;;;;;;;;1.30;99.90;;;;;;4942800;29;19923;-78
2022/03/31 14:30:21;;;;;;;;;;;1.30;99.90;;;;;;4955103;28;19922;-79
2022/03/31 14:32:47;;;;;;;;;;;1.30;99.90;;;;;;4924268;29;19968;-80
2022/03/31 14:35:18;;;;;;;;;;;1.30;99.90;;;;;;4956404;28;20509;-81
2022/03/31 14:37:44;;;;;;;;;;;1.30;99.90;;;;;;4939944;29;20378;-80
2022/03/31 14:40:11;;;;;;;;;;;1.30;99.90;;;;;;4972322;28;19945;-79
2022/03/31 14:42:40;;;;;;;;;;;1.30;99.90;;;;;;4939820;29;20374;-79
2022/03/31 14:45:06;;;;;;;;;;;1.30;99.90;;;;;;4955785;29;19981;-82
2022/03/31 14:47:32;;;;;;;;;;;1.20;99.90;;;;;;4940444;28;20451;-79